sensor_id;sensor_type;location;lat;lon;timestamp;pressure;altitude;pressure_sealevel;temperature;humidity
29383;BME280;16365;51.598;7.668;2023-04-05T00:02:09;101765.09;;;10.78;34.44
29383;BME280;16365;51.598;7.668;2023-04-05T00:04:36;101762.59;;;10.77;34.28
29383;BME280;16365;51.598;7.668;2023-04-05T00:07:05;101765.19;;;10.73;34.30
29383;BME280;16365;51.598;7.668;2023-04-05T00:09:33;101765.78;;;10.70;34.53
29383;BME280;16365;51.598;7.668;2023-04-05T00:12:00;101761.97;;;10.66;34.98
29383;BME280;16365;51.598;7.668;2023-04-05T00:14:26;101763.69;;;10.62;34.82
29383;BME280;16365;51.598;7.668;2023-04-05T00:16:53;101764.59;;;10.58;34.80
29383;BME280;16365;51.598;7.668;2023-04-05T00:19:19;101758.31;;;10.52;34.94
29383;BME280;16365;51.598;7.668;2023-04-05T00:21:48;101761.16;;;10.47;35.16
29383;BME280;16365;51.598;7.668;2023-04-05T00:24:15;101767.31;;;10.44;34.98
29383;BME280;16365;51.598;7.668;2023-04-05T00:26:41;101755.47;;;10.38;35.34
29383;BME280;16365;51.598;7.668;2023-04-05T00:29:09;101758.03;;;10.35;35.17
29383;BME280;16365;51.598;7.668;2023-04-05T00:31:36;101758.09;;;10.29;35.64
29383;BME280;16365;51.598;7.668;2023-04-05T00:34:02;101758.19;;;10.24;35.64
29383;BME280;16365;51.598;7.668;2023-04-05T00:36:31;101760.72;;;10.21;35.40
29383;BME280;16365;51.598;7.668;2023-04-05T00:38:57;101752.47;;;10.16;35.51
29383;BME280;16365;51.598;7.668;2023-04-05T00:41:23;101751.44;;;10.12;35.77
29383;BME280;16365;51.598;7.668;2023-04-05T00:43:50;101751.19;;;10.08;35.75
29383;BME280;16365;51.598;7.668;2023-04-05T00:46:17;101751.25;;;10.03;36.18
29383;BME280;16365;51.598;7.668;2023-04-05T00:48:44;101750.22;;;9.99;35.80
29383;BME280;16365;51.598;7.668;2023-04-05T00:51:10;101742.47;;;9.96;36.32
29383;BME280;16365;51.598;7.668;2023-04-05T00:53:37;101740.09;;;9.89;36.29
29383;BME280;16365;51.598;7.668;2023-04-05T00:56:04;101737.09;;;9.86;36.48
29383;BME280;16365;51.598;7.668;2023-04-05T00:58:31;101729.66;;;9.81;36.60
29383;BME280;16365;51.598;7.668;2023-04-05T01:03:44;101747.25;;;9.71;36.91
29383;BME280;16365;51.598;7.668;2023-04-05T01:06:19;101746.50;;;9.66;36.40
29383;BME280;16365;51.598;7.668;2023-04-05T01:08:59;101731.06;;;9.60;36.46
29383;BME280;16365;51.598;7.668;2023-04-05T01:11:32;101743.56;;;9.57;36.64
29383;BME280;16365;51.598;7.668;2023-04-05T01:13:59;101735.03;;;9.53;36.13
29383;BME280;16365;51.598;7.668;2023-04-05T01:16:26;101735.63;;;9.50;36.59
29383;BME280;16365;51.598;7.668;2023-04-05T01:18:53;101739.28;;;9.46;36.56
29383;BME280;16365;51.598;7.668;2023-04-05T01:21:37;101736.56;;;9.41;36.61
29383;BME280;16365;51.598;7.668;2023-04-05T01:24:20;101732.72;;;9.37;36.62
29383;BME280;16365;51.598;7.668;2023-04-05T01:27:01;101739.97;;;9.33;37.08
29383;BME280;16365;51.598;7.668;2023-04-05T01:29:42;101724.50;;;9.32;37.17
29383;BME280;16365;51.598;7.668;2023-04-05T01:32:25;101725.16;;;9.23;37.42
29383;BME280;16365;51.598;7.668;2023-04-05T01:37:47;101728.56;;;9.15;36.48
29383;BME280;16365;51.598;7.668;2023-04-05T01:40:15;101728.88;;;9.14;36.67
29383;BME280;16365;51.598;7.668;2023-04-05T01:42:43;101731.66;;;9.09;36.82
29383;BME280;16365;51.598;7.668;2023-04-05T01:45:10;101727.56;;;9.06;36.89
29383;BME280;16365;51.598;7.668;2023-04-05T01:47:37;101721.78;;;9.02;36.92
29383;BME280;16365;51.598;7.668;2023-04-05T01:50:04;101732.88;;;8.97;37.11
29383;BME280;16365;51.598;7.668;2023-04-05T01:52:30;101725.47;;;8.93;36.64
29383;BME280;16365;51.598;7.668;2023-04-05T01:54:57;101721.13;;;8.87;37.09
29383;BME280;16365;51.598;7.668;2023-04-05T01:57:23;101726.09;;;8.85;37.29
29383;BME280;16365;51.598;7.668;2023-04-05T01:59:50;101730.28;;;8.82;37.57
29383;BME280;16365;51.598;7.668;2023-04-05T02:02:16;101722.56;;;8.79;37.09
29383;BME280;16365;51.598;7.668;2023-04-05T02:04:43;101714.88;;;8.76;37.47
29383;BME280;16365;51.598;7.668;2023-04-05T02:07:09;101716.25;;;8.73;37.86
29383;BME280;16365;51.598;7.668;2023-04-05T02:09:36;101713.25;;;8.70;37.34
29383;BME280;16365;51.598;7.668;2023-04-05T02:12:02;101713.53;;;8.68;37.30
29383;BME280;16365;51.598;7.668;2023-04-05T02:14:29;101707.75;;;8.65;37.33
29383;BME280;16365;51.598;7.668;2023-04-05T02:16:55;101703.41;;;8.59;37.34
29383;BME280;16365;51.598;7.668;2023-04-05T02:19:22;101701.50;;;8.54;37.65
29383;BME280;16365;51.598;7.668;2023-04-05T02:21:49;101700.44;;;8.50;38.21
29383;BME280;16365;51.598;7.668;2023-04-05T02:24:18;101707.38;;;8.47;38.47
29383;BME280;16365;51.598;7.668;2023-04-05T02:26:44;101704.88;;;8.46;37.77
29383;BME280;16365;51.598;7.668;2023-04-05T02:29:11;101707.13;;;8.44;37.53
29383;BME280;16365;51.598;7.668;2023-04-05T02:31:37;101705.78;;;8.41;38.09
29383;BME280;16365;51.598;7.668;2023-04-05T02:34:04;101706.88;;;8.40;38.58
29383;BME280;16365;51.598;7.668;2023-04-05T02:36:31;101704.69;;;8.37;38.00
29383;BME280;16365;51.598;7.668;2023-04-05T02:38:57;101703.28;;;8.35;38.14
29383;BME280;16365;51.598;7.668;2023-04-05T02:41:24;101702.47;;;8.34;37.78
29383;BME280;16365;51.598;7.668;2023-04-05T02:43:51;101702.22;;;8.31;38.30
29383;BME280;16365;51.598;7.668;2023-04-05T02:46:17;101707.22;;;8.29;38.40
29383;BME280;16365;51.598;7.668;2023-04-05T02:48:44;101710.53;;;8.25;38.42
29383;BME280;16365;51.598;7.668;2023-04-05T02:51:10;101704.78;;;8.22;38.60
29383;BME280;16365;51.598;7.668;2023-04-05T02:53:37;101695.94;;;8.20;39.02
29383;BME280;16365;51.598;7.668;2023-04-05T02:56:04;101700.13;;;8.17;38.81
29383;BME280;16365;51.598;7.668;2023-04-05T02:58:31;101704.81;;;8.17;38.46
29383;BME280;16365;51.598;7.668;2023-04-05T03:00:58;101705.09;;;8.15;38.38
29383;BME280;16365;51.598;7.668;2023-04-05T03:03:26;101693.53;;;8.13;38.52
29383;BME280;16365;51.598;7.668;2023-04-05T03:05:59;101694.91;;;8.11;39.05
29383;BME280;16365;51.598;7.668;2023-04-05T03:08:26;101697.69;;;8.11;39.05
29383;BME280;16365;51.598;7.668;2023-04-05T03:10:55;101686.94;;;8.09;39.33
29383;BME280;16365;51.598;7.668;2023-04-05T03:13:21;101689.97;;;8.08;39.23
29383;BME280;16365;51.598;7.668;2023-04-05T03:15:48;101688.03;;;8.08;38.95
29383;BME280;16365;51.598;7.668;2023-04-05T03:18:18;101691.06;;;8.07;39.01
29383;BME280;16365;51.598;7.668;2023-04-05T03:20:46;101693.00;;;8.06;39.20
29383;BME280;16365;51.598;7.668;2023-04-05T03:23:15;101695.78;;;8.06;38.98
29383;BME280;16365;51.598;7.668;2023-04-05T03:25:41;101688.59;;;8.05;39.11
29383;BME280;16365;51.598;7.668;2023-04-05T03:28:08;101682.56;;;8.03;38.83
29383;BME280;16365;51.598;7.668;2023-04-05T03:30:34;101689.16;;;8.02;39.10
29383;BME280;16365;51.598;7.668;2023-04-05T03:33:01;101683.41;;;7.98;38.78
29383;BME280;16365;51.598;7.668;2023-04-05T03:35:28;101686.75;;;7.95;38.91
29383;BME280;16365;51.598;7.668;2023-04-05T03:37:55;101676.84;;;7.89;39.21
29383;BME280;16365;51.598;7.668;2023-04-05T03:40:22;101678.22;;;7.87;39.19
29383;BME280;16365;51.598;7.668;2023-04-05T03:42:49;101680.75;;;7.83;38.96
29383;BME280;16365;51.598;7.668;2023-04-05T03:45:16;101688.50;;;7.81;39.33
29383;BME280;16365;51.598;7.668;2023-04-05T03:47:49;101684.38;;;7.79;39.04
29383;BME280;16365;51.598;7.668;2023-04-05T03:50:16;101680.75;;;7.78;39.29
29383;BME280;16365;51.598;7.668;2023-04-05T03:52:42;101688.53;;;7.76;39.30
29383;BME280;16365;51.598;7.668;2023-04-05T03:55:09;101688.53;;;7.76;39.83
29383;BME280;16365;51.598;7.668;2023-04-05T03:57:36;101684.94;;;7.76;39.51
29383;BME280;16365;51.598;7.668;2023-04-05T04:00:05;101684.13;;;7.75;39.36
29383;BME280;16365;51.598;7.668;2023-04-05T04:02:44;101676.66;;;7.76;39.95
29383;BME280;16365;51.598;7.668;2023-04-05T04:05:12;101672.25;;;7.75;39.40
29383;BME280;16365;51.598;7.668;2023-04-05T04:07:39;101673.91;;;7.76;39.62
29383;BME280;16365;51.598;7.668;2023-04-05T04:10:12;101672.50;;;7.73;40.01
29383;BME280;16365;51.598;7.668;2023-04-05T04:12:39;101672.81;;;7.71;39.64
29383;BME280;16365;51.598;7.668;2023-04-05T04:15:05;101673.66;;;7.67;39.36
29383;BME280;16365;51.598;7.668;2023-04-05T04:17:33;101672.56;;;7.63;39.69
29383;BME280;16365;51.598;7.668;2023-04-05T04:20:01;101671.50;;;7.59;39.34
29383;BME280;16365;51.598;7.668;2023-04-05T04:22:27;101670.13;;;7.56;39.85
29383;BME280;16365;51.598;7.668;2023-04-05T04:24:59;101670.69;;;7.53;39.94
29383;BME280;16365;51.598;7.668;2023-04-05T04:27:28;101674.56;;;7.52;40.05
29383;BME280;16365;51.598;7.668;2023-04-05T04:29:56;101674.03;;;7.50;39.87
29383;BME280;16365;51.598;7.668;2023-04-05T04:32:29;101670.47;;;7.50;39.93
29383;BME280;16365;51.598;7.668;2023-04-05T04:35:15;101675.13;;;7.49;40.38
29383;BME280;16365;51.598;7.668;2023-04-05T04:37:45;101670.72;;;7.48;40.07
29383;BME280;16365;51.598;7.668;2023-04-05T04:40:15;101663.28;;;7.48;40.06
29383;BME280;16365;51.598;7.668;2023-04-05T04:42:44;101667.16;;;7.47;39.94
29383;BME280;16365;51.598;7.668;2023-04-05T04:45:18;101678.19;;;7.47;40.61
29383;BME280;16365;51.598;7.668;2023-04-05T04:47:46;101673.47;;;7.48;40.42
29383;BME280;16365;51.598;7.668;2023-04-05T04:50:14;101672.66;;;7.47;40.34
29383;BME280;16365;51.598;7.668;2023-04-05T04:52:41;101669.63;;;7.49;40.82
29383;BME280;16365;51.598;7.668;2023-04-05T04:55:08;101666.59;;;7.51;40.17
29383;BME280;16365;51.598;7.668;2023-04-05T04:57:35;101664.94;;;7.50;39.91
29383;BME280;16365;51.598;7.668;2023-04-05T05:00:01;101662.44;;;7.48;40.35
29383;BME280;16365;51.598;7.668;2023-04-05T05:02:33;101663.56;;;7.47;40.35
29383;BME280;16365;51.598;7.668;2023-04-05T05:04:59;101663.84;;;7.45;40.58
29383;BME280;16365;51.598;7.668;2023-04-05T05:07:26;101664.94;;;7.44;40.39
29383;BME280;16365;51.598;7.668;2023-04-05T05:09:52;101665.22;;;7.43;40.76
29383;BME280;16365;51.598;7.668;2023-04-05T05:12:20;101664.41;;;7.42;40.77
29383;BME280;16365;51.598;7.668;2023-04-05T05:14:47;101666.34;;;7.42;40.61
29383;BME280;16365;51.598;7.668;2023-04-05T05:17:13;101671.03;;;7.41;40.55
29383;BME280;16365;51.598;7.668;2023-04-05T05:19:40;101670.75;;;7.43;40.87
29383;BME280;16365;51.598;7.668;2023-04-05T05:22:06;101671.88;;;7.42;40.79
29383;BME280;16365;51.598;7.668;2023-04-05T05:24:33;101672.69;;;7.42;40.57
29383;BME280;16365;51.598;7.668;2023-04-05T05:26:59;101669.94;;;7.42;40.67
29383;BME280;16365;51.598;7.668;2023-04-05T05:29:26;101676.84;;;7.45;40.64
29383;BME280;16365;51.598;7.668;2023-04-05T05:31:52;101680.41;;;7.45;40.87
29383;BME280;16365;51.598;7.668;2023-04-05T05:34:18;101664.69;;;7.46;40.73
29383;BME280;16365;51.598;7.668;2023-04-05T05:36:45;101678.19;;;7.47;41.04
29383;BME280;16365;51.598;7.668;2023-04-05T05:39:12;101679.81;;;7.48;40.74
29383;BME280;16365;51.598;7.668;2023-04-05T05:41:38;101683.16;;;7.51;40.77
29383;BME280;16365;51.598;7.668;2023-04-05T05:44:05;101677.63;;;7.51;41.14
29383;BME280;16365;51.598;7.668;2023-04-05T05:46:31;101676.50;;;7.52;41.25
29383;BME280;16365;51.598;7.668;2023-04-05T05:48:58;101675.41;;;7.53;41.06
29383;BME280;16365;51.598;7.668;2023-04-05T05:51:25;101674.56;;;7.52;41.16
29383;BME280;16365;51.598;7.668;2023-04-05T05:53:51;101672.94;;;7.51;40.97
29383;BME280;16365;51.598;7.668;2023-04-05T05:56:17;101675.69;;;7.51;41.30
29383;BME280;16365;51.598;7.668;2023-04-05T05:58:44;101684.50;;;7.53;41.13
29383;BME280;16365;51.598;7.668;2023-04-05T06:01:11;101684.22;;;7.55;41.01
29383;BME280;16365;51.598;7.668;2023-04-05T06:03:38;101679.25;;;7.57;41.35
29383;BME280;16365;51.598;7.668;2023-04-05T06:06:05;101681.16;;;7.61;41.03
29383;BME280;16365;51.598;7.668;2023-04-05T06:08:33;101681.41;;;7.65;41.47
29383;BME280;16365;51.598;7.668;2023-04-05T06:10:59;101681.38;;;7.70;41.76
29383;BME280;16365;51.598;7.668;2023-04-05T06:13:26;101678.59;;;7.75;41.40
29383;BME280;16365;51.598;7.668;2023-04-05T06:15:53;101672.22;;;7.80;41.81
29383;BME280;16365;51.598;7.668;2023-04-05T06:18:19;101676.59;;;7.86;41.68
29383;BME280;16365;51.598;7.668;2023-04-05T06:20:46;101671.59;;;7.93;41.51
29383;BME280;16365;51.598;7.668;2023-04-05T06:23:13;101668.19;;;8.01;41.88
29383;BME280;16365;51.598;7.668;2023-04-05T06:25:39;101665.66;;;8.10;41.73
29383;BME280;16365;51.598;7.668;2023-04-05T06:28:06;101666.13;;;8.17;41.35
29383;BME280;16365;51.598;7.668;2023-04-05T06:30:32;101669.41;;;8.24;41.53
29383;BME280;16365;51.598;7.668;2023-04-05T06:32:59;101671.81;;;8.31;41.24
29383;BME280;16365;51.598;7.668;2023-04-05T06:35:25;101676.25;;;8.37;40.83
29383;BME280;16365;51.598;7.668;2023-04-05T06:37:52;101678.16;;;8.41;40.72
29383;BME280;16365;51.598;7.668;2023-04-05T06:40:18;101682.78;;;8.46;40.53
29383;BME280;16365;51.598;7.668;2023-04-05T06:42:45;101671.97;;;8.49;40.52
29383;BME280;16365;51.598;7.668;2023-04-05T06:45:12;101665.88;;;8.53;41.19
29383;BME280;16365;51.598;7.668;2023-04-05T06:47:39;101652.56;;;8.55;40.93
29383;BME280;16365;51.598;7.668;2023-04-05T06:50:07;101660.56;;;8.61;41.08
29383;BME280;16365;51.598;7.668;2023-04-05T06:52:34;101654.41;;;8.64;40.78
29383;BME280;16365;51.598;7.668;2023-04-05T06:55:00;101657.44;;;8.68;41.09
29383;BME280;16365;51.598;7.668;2023-04-05T06:57:27;101657.06;;;8.74;40.66
29383;BME280;16365;51.598;7.668;2023-04-05T06:59:53;101659.78;;;8.80;40.87
29383;BME280;16365;51.598;7.668;2023-04-05T07:02:20;101659.97;;;8.88;41.19
29383;BME280;16365;51.598;7.668;2023-04-05T07:04:46;101665.38;;;8.98;40.71
29383;BME280;16365;51.598;7.668;2023-04-05T07:07:13;101650.41;;;9.05;40.15
29383;BME280;16365;51.598;7.668;2023-04-05T07:09:40;101660.22;;;9.16;40.59
29383;BME280;16365;51.598;7.668;2023-04-05T07:12:07;101655.13;;;9.23;40.80
29383;BME280;16365;51.598;7.668;2023-04-05T07:14:35;101653.38;;;9.32;40.66
29383;BME280;16365;51.598;7.668;2023-04-05T07:17:04;101659.88;;;9.41;40.72
29383;BME280;16365;51.598;7.668;2023-04-05T07:19:32;101652.25;;;9.52;40.07
29383;BME280;16365;51.598;7.668;2023-04-05T07:21:58;101652.16;;;9.62;39.97
29383;BME280;16365;51.598;7.668;2023-04-05T07:24:25;101652.81;;;9.73;40.39
29383;BME280;16365;51.598;7.668;2023-04-05T07:26:52;101645.19;;;9.84;39.85
29383;BME280;16365;51.598;7.668;2023-04-05T07:29:18;101646.38;;;9.96;39.85
29383;BME280;16365;51.598;7.668;2023-04-05T07:31:45;101647.53;;;10.09;39.73
29383;BME280;16365;51.598;7.668;2023-04-05T07:34:12;101643.19;;;10.22;39.88
29383;BME280;16365;51.598;7.668;2023-04-05T07:36:38;101647.47;;;10.33;39.60
29383;BME280;16365;51.598;7.668;2023-04-05T07:39:05;101652.53;;;10.45;39.31
29383;BME280;16365;51.598;7.668;2023-04-05T07:41:31;101645.34;;;10.58;38.98
29383;BME280;16365;51.598;7.668;2023-04-05T07:44:00;101644.56;;;10.71;39.63
29383;BME280;16365;51.598;7.668;2023-04-05T07:46:27;101640.19;;;10.84;39.19
29383;BME280;16365;51.598;7.668;2023-04-05T07:48:53;101642.94;;;10.97;39.41
29383;BME280;16365;51.598;7.668;2023-04-05T07:51:20;101641.84;;;11.12;39.20
29383;BME280;16365;51.598;7.668;2023-04-05T07:53:46;101640.97;;;11.25;38.68
29383;BME280;16365;51.598;7.668;2023-04-05T07:56:14;101638.72;;;11.41;38.95
29383;BME280;16365;51.598;7.668;2023-04-05T07:58:41;101633.94;;;11.55;38.95
29383;BME280;16365;51.598;7.668;2023-04-05T08:01:08;101636.38;;;11.71;38.86
29383;BME280;16365;51.598;7.668;2023-04-05T08:03:36;101636.88;;;11.87;39.09
29383;BME280;16365;51.598;7.668;2023-04-05T08:06:12;101634.88;;;12.01;38.43
29383;BME280;16365;51.598;7.668;2023-04-05T08:08:39;101644.16;;;12.19;38.76
29383;BME280;16365;51.598;7.668;2023-04-05T08:11:06;101640.47;;;12.32;38.66
29383;BME280;16365;51.598;7.668;2023-04-05T08:13:33;101637.63;;;12.46;38.24
29383;BME280;16365;51.598;7.668;2023-04-05T08:16:00;101645.56;;;12.61;38.13
29383;BME280;16365;51.598;7.668;2023-04-05T08:18:27;101637.94;;;12.75;37.73
29383;BME280;16365;51.598;7.668;2023-04-05T08:20:54;101633.09;;;12.90;38.51
29383;BME280;16365;51.598;7.668;2023-04-05T08:23:21;101633.00;;;13.03;37.52
29383;BME280;16365;51.598;7.668;2023-04-05T08:25:48;101627.31;;;13.17;37.55
29383;BME280;16365;51.598;7.668;2023-04-05T08:28:15;101627.03;;;13.27;37.60
29383;BME280;16365;51.598;7.668;2023-04-05T08:30:42;101626.72;;;13.37;36.98
29383;BME280;16365;51.598;7.668;2023-04-05T08:33:08;101613.31;;;13.48;36.87
29383;BME280;16365;51.598;7.668;2023-04-05T08:35:36;101619.72;;;13.57;36.73
29383;BME280;16365;51.598;7.668;2023-04-05T08:38:05;101614.50;;;13.65;36.16
29383;BME280;16365;51.598;7.668;2023-04-05T08:40:38;101610.06;;;13.72;35.57
29383;BME280;16365;51.598;7.668;2023-04-05T08:45:49;101609.06;;;13.85;35.17
29383;BME280;16365;51.598;7.668;2023-04-05T08:48:17;101616.63;;;13.94;35.77
29383;BME280;16365;51.598;7.668;2023-04-05T08:50:51;101617.94;;;13.96;33.72
29383;BME280;16365;51.598;7.668;2023-04-05T08:53:18;101621.34;;;14.02;35.22
29383;BME280;16365;51.598;7.668;2023-04-05T08:55:48;101617.09;;;14.04;33.93
29383;BME280;16365;51.598;7.668;2023-04-05T08:58:17;101611.69;;;14.08;34.62
29383;BME280;16365;51.598;7.668;2023-04-05T09:00:46;101613.00;;;14.10;34.57
29383;BME280;16365;51.598;7.668;2023-04-05T09:03:22;101615.78;;;14.10;33.59
29383;BME280;16365;51.598;7.668;2023-04-05T09:05:51;101617.25;;;14.17;34.96
29383;BME280;16365;51.598;7.668;2023-04-05T09:08:18;101613.00;;;14.19;34.52
29383;BME280;16365;51.598;7.668;2023-04-05T09:10:52;101611.84;;;14.20;34.59
29383;BME280;16365;51.598;7.668;2023-04-05T09:13:18;101613.16;;;14.23;34.30
29383;BME280;16365;51.598;7.668;2023-04-05T09:15:45;101605.78;;;14.27;33.53
29383;BME280;16365;51.598;7.668;2023-04-05T09:18:12;101614.59;;;14.29;33.62
29383;BME280;16365;51.598;7.668;2023-04-05T09:21:04;101612.63;;;14.29;31.92
29383;BME280;16365;51.598;7.668;2023-04-05T09:23:35;101613.44;;;14.30;31.71
29383;BME280;16365;51.598;7.668;2023-04-05T09:26:19;101614.13;;;14.27;30.37
29383;BME280;16365;51.598;7.668;2023-04-05T09:28:47;101615.44;;;14.29;32.11
29383;BME280;16365;51.598;7.668;2023-04-05T09:31:33;101605.25;;;14.25;31.47
29383;BME280;16365;51.598;7.668;2023-04-05T09:34:04;101605.78;;;14.27;32.45
29383;BME280;16365;51.598;7.668;2023-04-05T09:36:32;101601.00;;;14.27;32.60
29383;BME280;16365;51.598;7.668;2023-04-05T09:39:06;101608.56;;;14.27;31.49
29383;BME280;16365;51.598;7.668;2023-04-05T09:41:34;101603.44;;;14.29;32.11
29383;BME280;16365;51.598;7.668;2023-04-05T09:44:01;101596.25;;;14.28;31.78
29383;BME280;16365;51.598;7.668;2023-04-05T09:46:29;101601.31;;;14.26;31.31
29383;BME280;16365;51.598;7.668;2023-04-05T09:48:56;101600.69;;;14.20;31.80
29383;BME280;16365;51.598;7.668;2023-04-05T09:51:31;101603.97;;;14.13;30.50
29383;BME280;16365;51.598;7.668;2023-04-05T09:53:58;101600.69;;;14.11;31.60
29383;BME280;16365;51.598;7.668;2023-04-05T09:56:26;101600.69;;;14.11;31.91
29383;BME280;16365;51.598;7.668;2023-04-05T09:59:00;101601.53;;;14.12;30.98
29383;BME280;16365;51.598;7.668;2023-04-05T10:01:29;101592.47;;;14.15;30.82
29383;BME280;16365;51.598;7.668;2023-04-05T10:03:57;101596.91;;;14.16;31.94
29383;BME280;16365;51.598;7.668;2023-04-05T10:06:35;101590.19;;;14.17;31.15
29383;BME280;16365;51.598;7.668;2023-04-05T10:09:04;101584.91;;;14.24;32.19
29383;BME280;16365;51.598;7.668;2023-04-05T10:11:32;101581.47;;;14.27;31.43
29383;BME280;16365;51.598;7.668;2023-04-05T10:14:08;101579.16;;;14.29;31.18
29383;BME280;16365;51.598;7.668;2023-04-05T10:16:44;101575.72;;;14.32;30.77
29383;BME280;16365;51.598;7.668;2023-04-05T10:19:23;101579.97;;;14.38;30.99
29383;BME280;16365;51.598;7.668;2023-04-05T10:21:53;101571.41;;;14.44;31.59
29383;BME280;16365;51.598;7.668;2023-04-05T10:27:04;101579.94;;;14.47;30.33
29383;BME280;16365;51.598;7.668;2023-04-05T10:29:38;101577.66;;;14.49;30.57
29383;BME280;16365;51.598;7.668;2023-04-05T10:32:23;101575.69;;;14.50;30.69
29383;BME280;16365;51.598;7.668;2023-04-05T10:38:11;101568.91;;;14.59;30.64
29383;BME280;16365;51.598;7.668;2023-04-05T10:40:45;101561.19;;;14.65;29.74
29383;BME280;16365;51.598;7.668;2023-04-05T10:43:16;101564.94;;;14.69;30.32
29383;BME280;16365;51.598;7.668;2023-04-05T10:45:47;101560.66;;;14.72;30.23
29383;BME280;16365;51.598;7.668;2023-04-05T10:51:02;101559.81;;;14.80;30.16
29383;BME280;16365;51.598;7.668;2023-04-05T10:53:32;101553.06;;;14.81;29.17
29383;BME280;16365;51.598;7.668;2023-04-05T10:56:00;101553.69;;;14.86;29.51
29383;BME280;16365;51.598;7.668;2023-04-05T10:58:28;101546.97;;;14.87;29.99
29383;BME280;16365;51.598;7.668;2023-04-05T11:00:55;101550.72;;;14.91;29.95
29383;BME280;16365;51.598;7.668;2023-04-05T11:09:09;101543.47;;;14.99;28.49
29383;BME280;16365;51.598;7.668;2023-04-05T11:11:44;101545.09;;;15.00;28.01
29383;BME280;16365;51.598;7.668;2023-04-05T11:14:22;101545.56;;;15.02;28.36
29383;BME280;16365;51.598;7.668;2023-04-05T11:16:53;101539.66;;;15.04;28.20
29383;BME280;16365;51.598;7.668;2023-04-05T11:22:24;101527.16;;;15.01;28.00
29383;BME280;16365;51.598;7.668;2023-04-05T11:24:56;101527.63;;;15.03;28.83
29383;BME280;16365;51.598;7.668;2023-04-05T11:27:33;101533.56;;;15.02;27.95
29383;BME280;16365;51.598;7.668;2023-04-05T11:30:04;101526.50;;;15.04;28.49
29383;BME280;16365;51.598;7.668;2023-04-05T11:32:52;101526.63;;;15.08;29.47
29383;BME280;16365;51.598;7.668;2023-04-05T11:35:18;101521.69;;;15.13;28.71
29383;BME280;16365;51.598;7.668;2023-04-05T11:40:36;101514.22;;;15.17;28.21
29383;BME280;16365;51.598;7.668;2023-04-05T11:43:05;101514.72;;;15.20;28.32
29383;BME280;16365;51.598;7.668;2023-04-05T11:45:34;101519.63;;;15.23;28.34
29383;BME280;16365;51.598;7.668;2023-04-05T11:48:05;101507.44;;;15.27;29.52
29383;BME280;16365;51.598;7.668;2023-04-05T11:50:32;101499.69;;;15.33;28.82
29383;BME280;16365;51.598;7.668;2023-04-05T11:53:12;101496.41;;;15.31;27.41
29383;BME280;16365;51.598;7.668;2023-04-05T11:55:41;101498.53;;;15.34;28.39
29383;BME280;16365;51.598;7.668;2023-04-05T11:58:21;101504.91;;;15.34;27.64
29383;BME280;16365;51.598;7.668;2023-04-05T12:01:02;101489.44;;;15.37;27.09
29383;BME280;16365;51.598;7.668;2023-04-05T12:03:28;101497.75;;;15.46;28.71
29383;BME280;16365;51.598;7.668;2023-04-05T12:05:57;101502.66;;;15.49;27.84
29383;BME280;16365;51.598;7.668;2023-04-05T12:08:37;101496.38;;;15.52;26.85
29383;BME280;16365;51.598;7.668;2023-04-05T12:11:07;101487.09;;;15.60;27.23
29383;BME280;16365;51.598;7.668;2023-04-05T12:13:35;101502.06;;;15.64;27.22
29383;BME280;16365;51.598;7.668;2023-04-05T12:16:06;101495.31;;;15.65;26.83
29383;BME280;16365;51.598;7.668;2023-04-05T12:18:35;101495.44;;;15.68;26.36
29383;BME280;16365;51.598;7.668;2023-04-05T12:21:04;101482.28;;;15.69;26.93
29383;BME280;16365;51.598;7.668;2023-04-05T12:23:33;101470.28;;;15.68;26.74
29383;BME280;16365;51.598;7.668;2023-04-05T12:26:00;101471.44;;;15.67;26.51
29383;BME280;16365;51.598;7.668;2023-04-05T12:28:49;101476.41;;;15.62;25.88
29383;BME280;16365;51.598;7.668;2023-04-05T12:34:01;101469.97;;;15.61;26.92
29383;BME280;16365;51.598;7.668;2023-04-05T12:36:29;101467.19;;;15.61;26.62
29383;BME280;16365;51.598;7.668;2023-04-05T12:38:57;101466.84;;;15.63;26.85
29383;BME280;16365;51.598;7.668;2023-04-05T12:41:31;101466.53;;;15.64;25.51
29383;BME280;16365;51.598;7.668;2023-04-05T12:43:58;101461.53;;;15.70;26.31
29383;BME280;16365;51.598;7.668;2023-04-05T12:46:45;101464.81;;;15.72;25.81
29383;BME280;16365;51.598;7.668;2023-04-05T12:49:17;101459.34;;;15.76;26.20
29383;BME280;16365;51.598;7.668;2023-04-05T12:51:45;101452.72;;;15.80;26.70
29383;BME280;16365;51.598;7.668;2023-04-05T12:54:19;101455.19;;;15.82;26.50
29383;BME280;16365;51.598;7.668;2023-04-05T12:56:50;101445.63;;;15.83;26.38
29383;BME280;16365;51.598;7.668;2023-04-05T12:59:18;101452.50;;;15.85;26.74
29383;BME280;16365;51.598;7.668;2023-04-05T13:01:45;101448.56;;;15.86;26.71
29383;BME280;16365;51.598;7.668;2023-04-05T13:04:12;101449.84;;;15.89;26.33
29383;BME280;16365;51.598;7.668;2023-04-05T13:06:43;101444.72;;;15.91;26.50
29383;BME280;16365;51.598;7.668;2023-04-05T13:09:10;101437.97;;;15.92;26.35
29383;BME280;16365;51.598;7.668;2023-04-05T13:11:36;101429.91;;;15.90;26.42
29383;BME280;16365;51.598;7.668;2023-04-05T13:14:03;101432.38;;;15.92;26.62
29383;BME280;16365;51.598;7.668;2023-04-05T13:16:29;101432.81;;;15.94;26.08
29383;BME280;16365;51.598;7.668;2023-04-05T13:18:56;101426.06;;;15.95;25.93
29383;BME280;16365;51.598;7.668;2023-04-05T13:21:22;101418.63;;;15.99;24.84
29383;BME280;16365;51.598;7.668;2023-04-05T13:23:49;101414.19;;;15.98;24.94
29383;BME280;16365;51.598;7.668;2023-04-05T13:26:16;101407.44;;;15.99;25.13
29383;BME280;16365;51.598;7.668;2023-04-05T13:28:42;101415.00;;;15.99;25.08
29383;BME280;16365;51.598;7.668;2023-04-05T13:31:09;101411.03;;;16.00;24.93
29383;BME280;16365;51.598;7.668;2023-04-05T13:33:37;101411.84;;;16.00;24.96
29383;BME280;16365;51.598;7.668;2023-04-05T13:36:04;101408.72;;;16.02;25.47